Flight Track Log - Related Links

Times and Time Zones

All times are in EDT time to prevent confusion due to time zone crossing. See the SWA1960 flight status page for this flight to view local times or setup timezone preferences in your user account.

Time Position Orientation Groundspeed Altitude Reporting Facility
EDT Latitude Longitude Course Direction KTS MPH feet Rate Location/Type
Fri 02:21:22 PM 39.1667 -76.7167 150° Southeast 177 204 1,900  Level Potomac TRACON
Fri 02:22:22 PM 39.1000 -76.6667 150° Southeast 243 280 4,400 2,926 Climbing Potomac TRACON
Fri 02:23:23 PM 39.0500 -76.6000 134° Southeast 277 319 7,800 3,223 Climbing Potomac TRACON
Fri 02:24:23 PM 38.9833 -76.5333 142° Southeast 318 366 10,900 3,000 Climbing Potomac TRACON
Fri 02:25:23 PM 38.9167 -76.4500 136° Southeast 372 428 13,800 1,550 Climbing Potomac TRACON
Fri 02:26:23 PM 38.8333 -76.4833 197° South 339 390 14,000 697 Climbing Potomac TRACON
Fri 02:28:41 PM 38.6608 -76.6339 214° Southwest 349 402 16,100 1,417 Climbing Washington Center
Fri 02:29:42 PM 38.5831 -76.7044 215° Southwest 344 396 18,700 2,656 Climbing Washington Center
Fri 02:30:43 PM 38.4764 -76.7189 186° South 354 407 21,500 2,132 Climbing Washington Center
Fri 02:31:43 PM 38.3619 -76.7039 174° South 386 444 23,000 1,220 Climbing Washington Center
Fri 02:32:41 PM 38.2494 -76.6864 173° South 394 453 23,900 1,475 Climbing Washington Center
Fri 02:33:41 PM 38.1308 -76.6689 173° South 417 480 25,900 1,950 Climbing Washington Center
Fri 02:34:41 PM 38.0058 -76.6511 174° South 441 507 27,800 1,388 Climbing Washington Center
Fri 02:35:42 PM 37.8786 -76.6547 181° South 453 521 28,700 1,230 Climbing Washington Center
Fri 02:36:43 PM 37.7511 -76.6711 186° South 463 533 30,300 1,714 Climbing Washington Center
Fri 02:37:41 PM 37.6197 -76.6878 186° South 469 540 32,100 1,983 Climbing Washington Center
Fri 02:38:41 PM 37.4861 -76.7042 186° South 479 551 34,200 1,934 Climbing Washington Center
Fri 02:39:42 PM 37.3628 -76.7417 194° South 479 551 36,000 893 Climbing Washington Center
Fri 02:40:42 PM 37.2453 -76.7919 199° South 460 529 36,000  Level Washington Center
Fri 02:41:43 PM 37.1281 -76.8422 199° South 455 524 36,000  Level Washington Center
Fri 02:42:41 PM 37.0086 -76.8922 198° South 455 524 36,000  Level Washington Center
Fri 02:43:42 PM 36.8911 -76.9397 198° South 455 524 36,000  Level Washington Center
Fri 02:44:42 PM 36.7739 -76.9894 199° South 450 518 36,000  Level Washington Center
Fri 02:45:42 PM 36.6644 -77.0550 206° Southwest 450 518 36,000  Level Washington Center
Fri 02:46:43 PM 36.5675 -77.1436 216° Southwest 437 503 36,000  Level Washington Center
Fri 02:47:43 PM 36.4725 -77.2269 215° Southwest 432 497 36,000  Level Washington Center
Fri 02:48:45 PM 36.3775 -77.3100 215° Southwest 432 497 36,000  Level Washington Center
Fri 02:49:42 PM 36.2803 -77.3956 215° Southwest 432 497 36,000  Level Washington Center
Fri 02:50:43 PM 36.1764 -77.4911 217° Southwest 432 497 36,000  Level Washington Center
Fri 02:51:43 PM 36.0769 -77.5761 215° Southwest 432 497 36,000  Level Washington Center
Fri 02:52:43 PM 35.9775 -77.6608 215° Southwest 432 497 36,000  Level Washington Center
Fri 02:53:41 PM 35.8781 -77.7478 215° Southwest 432 497 36,000  Level Washington Center
Fri 02:54:42 PM 35.7783 -77.8322 214° Southwest 432 497 36,000  Level Washington Center
Fri 02:55:43 PM 35.6806 -77.9217 217° Southwest 432 497 36,000  Level Washington Center
Fri 02:56:43 PM 35.5917 -77.9956 214° Southwest 432 497 36,000  Level Washington Center
Fri 02:57:43 PM 35.4917 -78.0794 214° Southwest 432 497 36,000  Level Washington Center
Fri 02:58:41 PM 35.3919 -78.1603 213° Southwest 432 497 36,000  Level Washington Center
Fri 02:59:42 PM 35.2881 -78.2408 212° Southwest 438 504 36,000  Level Washington Center
Fri 03:00:43 PM 35.1861 -78.3189 212° Southwest 438 504 36,000  Level Washington Center
Fri 03:01:41 PM 35.0842 -78.3967 212° Southwest 444 511 36,000  Level Washington Center
Fri 03:02:41 PM 34.9842 -78.4769 213° Southwest 444 511 36,000  Level Washington Center
Fri 03:04:40 PM 34.7764 -78.6339 212° Southwest 459 528 36,000  Level Jacksonville Center
Fri 03:05:40 PM 34.6747 -78.7122 212° Southwest 459 528 36,000 -950 Level Jacksonville Center
Fri 03:06:40 PM 34.5708 -78.7878 211° Southwest 454 522 34,100 -2,050 Descending Jacksonville Center
Fri 03:07:40 PM 34.4753 -78.8703 215° Southwest 440 506 31,900 -2,100 Descending Jacksonville Center
Fri 03:08:40 PM 34.3756 -78.9481 213° Southwest 433 498 29,900 -1,950 Descending Jacksonville Center
Fri 03:09:40 PM 34.2842 -79.0225 214° Southwest 422 486 28,000 -1,950 Descending Jacksonville Center
Fri 03:10:40 PM 34.1944 -79.0992 215° Southwest 403 464 26,000 -1,950 Descending Jacksonville Center
Fri 03:11:40 PM 34.1069 -79.1708 214° Southwest 392 451 24,100 -1,200 Descending Jacksonville Center
Fri 03:12:40 PM 33.9972 -79.1981 192° South 381 438 23,600 -750 Descending Jacksonville Center
Fri 03:13:40 PM 33.8914 -79.2175 189° South 387 445 22,600 -1,700 Descending Jacksonville Center
Fri 03:14:40 PM 33.7856 -79.2419 191° South 392 451 20,200 -1,850 Descending Jacksonville Center
Fri 03:15:40 PM 33.6814 -79.3161 211° Southwest 378 435 18,900 -1,650 Descending Jacksonville Center
Fri 03:16:40 PM 33.5853 -79.3897 213° Southwest 397 457 16,900 -2,250 Descending Jacksonville Center
Fri 03:17:40 PM 33.4892 -79.4608 212° Southwest 404 465 14,400 -2,300 Descending Jacksonville Center
Fri 03:18:40 PM 33.3992 -79.5289 212° Southwest 411 473 12,300 -1,700 Descending Jacksonville Center
Fri 03:19:40 PM 33.3114 -79.5944 212° Southwest 391 450 11,000 -700 Descending Jacksonville Center
Fri 03:20:40 PM 33.2275 -79.6594 213° Southwest 379 436 10,900 -50 Descending Jacksonville Center
Fri 03:21:40 PM 33.1536 -79.7144 212° Southwest 350 403 10,900 -600 Level Jacksonville Center
Fri 03:22:40 PM 33.0861 -79.7689 214° Southwest 317 365 9,700 -1,400 Descending Jacksonville Center
Fri 03:23:40 PM 33.0186 -79.8206 213° Southwest 302 348 8,100 -1,650 Descending Jacksonville Center
Fri 03:24:40 PM 32.9531 -79.8725 214° Southwest 296 341 6,400 -1,400 Descending Jacksonville Center
Fri 03:25:40 PM 32.8914 -79.9189 212° Southwest 284 327 5,300 -1,050 Descending Jacksonville Center
Fri 03:26:40 PM 32.8383 -79.9628 215° Southwest 260 299 4,300 -850 Descending Jacksonville Center
Fri 03:27:40 PM 32.7931 -79.9939 210° Southwest 225 259 3,600 -850 Descending Jacksonville Center
Fri 03:28:40 PM 32.7733 -80.0439 245° Southwest 169 194 2,600 -1,000 Descending Jacksonville Center
Fri 03:31:00 PM 32.8833 -80.0333 348° North  Level FlightAware Approximate

Login

Don't have an account? Register now (free) for customized features, flight alerts, and more!